sensor_id;sensor_type;location;lat;lon;timestamp;P1;durP1;ratioP1;P2;durP2;ratioP2
59922;SDS011;45778;51.142;3.732;2024-03-17T00:01:58;6.95;;;4.00;;
59922;SDS011;45778;51.142;3.732;2024-03-17T00:04:24;6.43;;;3.90;;
59922;SDS011;45778;51.142;3.732;2024-03-17T00:06:50;5.68;;;3.55;;
59922;SDS011;45778;51.142;3.732;2024-03-17T00:09:15;7.32;;;4.13;;
59922;SDS011;45778;51.142;3.732;2024-03-17T00:11:41;10.02;;;4.07;;
59922;SDS011;45778;51.142;3.732;2024-03-17T00:14:07;6.68;;;4.55;;
59922;SDS011;45778;51.142;3.732;2024-03-17T00:16:32;8.70;;;4.78;;
59922;SDS011;45778;51.142;3.732;2024-03-17T00:18:58;11.05;;;5.40;;
59922;SDS011;45778;51.142;3.732;2024-03-17T00:21:24;14.88;;;5.75;;
59922;SDS011;45778;51.142;3.732;2024-03-17T00:23:51;11.45;;;6.47;;
59922;SDS011;45778;51.142;3.732;2024-03-17T00:26:17;7.68;;;5.57;;
59922;SDS011;45778;51.142;3.732;2024-03-17T00:28:44;9.05;;;6.25;;
59922;SDS011;45778;51.142;3.732;2024-03-17T00:31:13;11.93;;;6.18;;
59922;SDS011;45778;51.142;3.732;2024-03-17T00:33:40;8.98;;;5.35;;
59922;SDS011;45778;51.142;3.732;2024-03-17T00:36:06;9.30;;;4.97;;
59922;SDS011;45778;51.142;3.732;2024-03-17T00:38:32;7.75;;;4.97;;
59922;SDS011;45778;51.142;3.732;2024-03-17T00:40:58;8.13;;;4.40;;
59922;SDS011;45778;51.142;3.732;2024-03-17T00:43:24;14.40;;;4.78;;
59922;SDS011;45778;51.142;3.732;2024-03-17T00:45:53;8.90;;;4.40;;
59922;SDS011;45778;51.142;3.732;2024-03-17T00:48:19;6.07;;;3.78;;
59922;SDS011;45778;51.142;3.732;2024-03-17T00:50:45;6.55;;;3.85;;
59922;SDS011;45778;51.142;3.732;2024-03-17T00:53:12;8.38;;;3.90;;
59922;SDS011;45778;51.142;3.732;2024-03-17T00:55:39;9.50;;;4.30;;
59922;SDS011;45778;51.142;3.732;2024-03-17T00:58:05;6.97;;;3.70;;
59922;SDS011;45778;51.142;3.732;2024-03-17T01:00:31;6.50;;;4.30;;
59922;SDS011;45778;51.142;3.732;2024-03-17T01:02:58;7.45;;;4.10;;
59922;SDS011;45778;51.142;3.732;2024-03-17T01:05:24;7.78;;;4.57;;
59922;SDS011;45778;51.142;3.732;2024-03-17T01:07:50;7.70;;;3.95;;
59922;SDS011;45778;51.142;3.732;2024-03-17T01:10:16;9.88;;;4.40;;
59922;SDS011;45778;51.142;3.732;2024-03-17T01:12:42;8.70;;;4.65;;
59922;SDS011;45778;51.142;3.732;2024-03-17T01:15:08;6.80;;;3.65;;
59922;SDS011;45778;51.142;3.732;2024-03-17T01:17:34;8.93;;;4.13;;
59922;SDS011;45778;51.142;3.732;2024-03-17T01:19:59;8.30;;;4.35;;
59922;SDS011;45778;51.142;3.732;2024-03-17T01:22:25;5.63;;;3.88;;
59922;SDS011;45778;51.142;3.732;2024-03-17T01:24:51;6.60;;;4.18;;
59922;SDS011;45778;51.142;3.732;2024-03-17T01:27:16;8.15;;;4.65;;
59922;SDS011;45778;51.142;3.732;2024-03-17T01:29:42;9.00;;;4.07;;
59922;SDS011;45778;51.142;3.732;2024-03-17T01:32:08;5.13;;;3.90;;
59922;SDS011;45778;51.142;3.732;2024-03-17T01:34:36;7.30;;;4.80;;
59922;SDS011;45778;51.142;3.732;2024-03-17T01:37:03;7.13;;;4.68;;
59922;SDS011;45778;51.142;3.732;2024-03-17T01:39:29;7.90;;;4.63;;
59922;SDS011;45778;51.142;3.732;2024-03-17T01:41:55;8.68;;;4.70;;
59922;SDS011;45778;51.142;3.732;2024-03-17T01:44:23;8.57;;;5.43;;
59922;SDS011;45778;51.142;3.732;2024-03-17T01:46:50;8.48;;;4.90;;
59922;SDS011;45778;51.142;3.732;2024-03-17T01:49:22;9.30;;;5.20;;
59922;SDS011;45778;51.142;3.732;2024-03-17T01:51:51;11.50;;;5.10;;
59922;SDS011;45778;51.142;3.732;2024-03-17T01:54:18;6.28;;;4.45;;
59922;SDS011;45778;51.142;3.732;2024-03-17T01:56:44;9.57;;;4.78;;
59922;SDS011;45778;51.142;3.732;2024-03-17T01:59:10;11.32;;;5.40;;
59922;SDS011;45778;51.142;3.732;2024-03-17T02:01:41;9.55;;;4.32;;
59922;SDS011;45778;51.142;3.732;2024-03-17T02:04:06;8.60;;;5.00;;
59922;SDS011;45778;51.142;3.732;2024-03-17T02:06:32;8.38;;;4.65;;
59922;SDS011;45778;51.142;3.732;2024-03-17T02:08:58;7.53;;;4.30;;
59922;SDS011;45778;51.142;3.732;2024-03-17T02:13:52;5.68;;;4.13;;
59922;SDS011;45778;51.142;3.732;2024-03-17T02:16:19;10.32;;;5.07;;
59922;SDS011;45778;51.142;3.732;2024-03-17T02:18:45;9.10;;;5.10;;
59922;SDS011;45778;51.142;3.732;2024-03-17T02:21:11;6.88;;;4.45;;
59922;SDS011;45778;51.142;3.732;2024-03-17T02:23:40;12.05;;;5.32;;
59922;SDS011;45778;51.142;3.732;2024-03-17T02:26:10;9.25;;;5.50;;
59922;SDS011;45778;51.142;3.732;2024-03-17T02:28:39;8.75;;;4.93;;
59922;SDS011;45778;51.142;3.732;2024-03-17T02:31:07;9.07;;;5.13;;
59922;SDS011;45778;51.142;3.732;2024-03-17T02:33:34;8.43;;;4.65;;
59922;SDS011;45778;51.142;3.732;2024-03-17T02:36:00;7.25;;;4.78;;
59922;SDS011;45778;51.142;3.732;2024-03-17T02:38:26;7.63;;;4.93;;
59922;SDS011;45778;51.142;3.732;2024-03-17T02:41:10;8.05;;;4.43;;
59922;SDS011;45778;51.142;3.732;2024-03-17T02:43:36;6.90;;;4.55;;
59922;SDS011;45778;51.142;3.732;2024-03-17T02:46:02;7.93;;;4.55;;
59922;SDS011;45778;51.142;3.732;2024-03-17T02:48:30;9.45;;;4.70;;
59922;SDS011;45778;51.142;3.732;2024-03-17T02:50:56;5.13;;;3.70;;
59922;SDS011;45778;51.142;3.732;2024-03-17T02:53:22;8.07;;;4.47;;
59922;SDS011;45778;51.142;3.732;2024-03-17T02:55:48;6.55;;;4.22;;
59922;SDS011;45778;51.142;3.732;2024-03-17T02:58:13;11.20;;;4.30;;
59922;SDS011;45778;51.142;3.732;2024-03-17T03:00:39;6.90;;;4.28;;
59922;SDS011;45778;51.142;3.732;2024-03-17T03:03:06;10.23;;;4.50;;
59922;SDS011;45778;51.142;3.732;2024-03-17T03:05:35;6.50;;;4.25;;
59922;SDS011;45778;51.142;3.732;2024-03-17T03:08:05;12.82;;;4.22;;
59922;SDS011;45778;51.142;3.732;2024-03-17T03:10:31;7.97;;;4.88;;
59922;SDS011;45778;51.142;3.732;2024-03-17T03:12:57;8.15;;;5.43;;
59922;SDS011;45778;51.142;3.732;2024-03-17T03:15:22;7.57;;;5.00;;
59922;SDS011;45778;51.142;3.732;2024-03-17T03:17:48;9.48;;;5.60;;
59922;SDS011;45778;51.142;3.732;2024-03-17T03:20:14;8.60;;;5.05;;
59922;SDS011;45778;51.142;3.732;2024-03-17T03:22:43;8.57;;;4.38;;
59922;SDS011;45778;51.142;3.732;2024-03-17T03:25:08;9.75;;;4.53;;
59922;SDS011;45778;51.142;3.732;2024-03-17T03:27:34;7.20;;;4.80;;
59922;SDS011;45778;51.142;3.732;2024-03-17T03:30:00;10.45;;;4.85;;
59922;SDS011;45778;51.142;3.732;2024-03-17T03:32:25;6.72;;;4.30;;
59922;SDS011;45778;51.142;3.732;2024-03-17T03:34:51;9.70;;;4.50;;
59922;SDS011;45778;51.142;3.732;2024-03-17T03:37:17;9.93;;;4.30;;
59922;SDS011;45778;51.142;3.732;2024-03-17T03:39:43;7.88;;;4.50;;
59922;SDS011;45778;51.142;3.732;2024-03-17T03:42:08;8.75;;;4.57;;
59922;SDS011;45778;51.142;3.732;2024-03-17T03:44:34;7.05;;;4.20;;
59922;SDS011;45778;51.142;3.732;2024-03-17T03:46:59;7.15;;;4.35;;
59922;SDS011;45778;51.142;3.732;2024-03-17T03:49:26;8.18;;;4.15;;
59922;SDS011;45778;51.142;3.732;2024-03-17T03:51:51;8.20;;;4.38;;
59922;SDS011;45778;51.142;3.732;2024-03-17T03:54:17;7.70;;;4.95;;
59922;SDS011;45778;51.142;3.732;2024-03-17T03:56:42;11.25;;;4.43;;
59922;SDS011;45778;51.142;3.732;2024-03-17T03:59:09;7.68;;;4.85;;
59922;SDS011;45778;51.142;3.732;2024-03-17T04:01:34;7.32;;;4.15;;
59922;SDS011;45778;51.142;3.732;2024-03-17T04:04:00;6.85;;;4.38;;
59922;SDS011;45778;51.142;3.732;2024-03-17T04:06:26;7.50;;;4.30;;
59922;SDS011;45778;51.142;3.732;2024-03-17T04:08:53;6.85;;;4.30;;
59922;SDS011;45778;51.142;3.732;2024-03-17T04:11:19;7.03;;;4.28;;
59922;SDS011;45778;51.142;3.732;2024-03-17T04:13:45;8.43;;;4.35;;
59922;SDS011;45778;51.142;3.732;2024-03-17T04:16:12;9.55;;;4.82;;
59922;SDS011;45778;51.142;3.732;2024-03-17T04:18:40;7.80;;;4.63;;
59922;SDS011;45778;51.142;3.732;2024-03-17T04:21:06;6.60;;;4.15;;
59922;SDS011;45778;51.142;3.732;2024-03-17T04:23:34;7.90;;;4.90;;
59922;SDS011;45778;51.142;3.732;2024-03-17T04:26:00;7.90;;;4.30;;
59922;SDS011;45778;51.142;3.732;2024-03-17T04:28:28;7.75;;;4.45;;
59922;SDS011;45778;51.142;3.732;2024-03-17T04:31:02;8.85;;;4.45;;
59922;SDS011;45778;51.142;3.732;2024-03-17T04:33:31;10.95;;;4.55;;
59922;SDS011;45778;51.142;3.732;2024-03-17T04:36:01;8.35;;;4.55;;
59922;SDS011;45778;51.142;3.732;2024-03-17T04:38:30;12.63;;;5.22;;
59922;SDS011;45778;51.142;3.732;2024-03-17T04:40:55;11.52;;;4.68;;
59922;SDS011;45778;51.142;3.732;2024-03-17T04:43:29;8.88;;;4.68;;
59922;SDS011;45778;51.142;3.732;2024-03-17T04:46:03;7.25;;;4.78;;
59922;SDS011;45778;51.142;3.732;2024-03-17T04:48:31;6.68;;;4.88;;
59922;SDS011;45778;51.142;3.732;2024-03-17T04:50:57;9.18;;;5.07;;
59922;SDS011;45778;51.142;3.732;2024-03-17T04:53:24;8.90;;;4.40;;
59922;SDS011;45778;51.142;3.732;2024-03-17T04:58:26;10.27;;;4.90;;
59922;SDS011;45778;51.142;3.732;2024-03-17T05:00:52;11.38;;;4.80;;
59922;SDS011;45778;51.142;3.732;2024-03-17T05:03:18;10.23;;;4.82;;
59922;SDS011;45778;51.142;3.732;2024-03-17T05:05:43;8.90;;;4.78;;
59922;SDS011;45778;51.142;3.732;2024-03-17T05:08:09;12.10;;;5.57;;
59922;SDS011;45778;51.142;3.732;2024-03-17T05:10:34;6.68;;;4.13;;
59922;SDS011;45778;51.142;3.732;2024-03-17T05:13:00;6.53;;;4.45;;
59922;SDS011;45778;51.142;3.732;2024-03-17T05:15:26;10.55;;;4.63;;
59922;SDS011;45778;51.142;3.732;2024-03-17T05:17:52;7.68;;;4.00;;
59922;SDS011;45778;51.142;3.732;2024-03-17T05:20:17;6.65;;;4.20;;
59922;SDS011;45778;51.142;3.732;2024-03-17T05:22:43;9.75;;;5.07;;
59922;SDS011;45778;51.142;3.732;2024-03-17T05:25:11;9.05;;;5.25;;
59922;SDS011;45778;51.142;3.732;2024-03-17T05:27:38;12.90;;;6.45;;
59922;SDS011;45778;51.142;3.732;2024-03-17T05:30:03;11.95;;;6.03;;
59922;SDS011;45778;51.142;3.732;2024-03-17T05:32:30;15.63;;;7.70;;
59922;SDS011;45778;51.142;3.732;2024-03-17T05:34:56;10.90;;;6.95;;
59922;SDS011;45778;51.142;3.732;2024-03-17T05:37:21;12.85;;;7.78;;
59922;SDS011;45778;51.142;3.732;2024-03-17T05:39:47;13.68;;;7.75;;
59922;SDS011;45778;51.142;3.732;2024-03-17T05:42:13;9.30;;;7.65;;
59922;SDS011;45778;51.142;3.732;2024-03-17T05:44:38;14.80;;;7.57;;
59922;SDS011;45778;51.142;3.732;2024-03-17T05:47:18;13.15;;;8.60;;
59922;SDS011;45778;51.142;3.732;2024-03-17T05:49:44;15.35;;;7.85;;
59922;SDS011;45778;51.142;3.732;2024-03-17T05:52:10;9.65;;;7.85;;
59922;SDS011;45778;51.142;3.732;2024-03-17T05:54:36;12.32;;;7.90;;
59922;SDS011;45778;51.142;3.732;2024-03-17T05:57:02;12.63;;;7.15;;
59922;SDS011;45778;51.142;3.732;2024-03-17T05:59:29;8.98;;;6.80;;
59922;SDS011;45778;51.142;3.732;2024-03-17T06:02:01;9.65;;;6.53;;
59922;SDS011;45778;51.142;3.732;2024-03-17T06:04:27;11.93;;;6.85;;
59922;SDS011;45778;51.142;3.732;2024-03-17T06:06:53;11.50;;;7.93;;
59922;SDS011;45778;51.142;3.732;2024-03-17T06:09:19;13.85;;;8.65;;
59922;SDS011;45778;51.142;3.732;2024-03-17T06:11:45;10.00;;;7.97;;
59922;SDS011;45778;51.142;3.732;2024-03-17T06:14:11;16.80;;;8.32;;
59922;SDS011;45778;51.142;3.732;2024-03-17T06:16:38;11.88;;;8.13;;
59922;SDS011;45778;51.142;3.732;2024-03-17T06:19:09;13.13;;;8.32;;
59922;SDS011;45778;51.142;3.732;2024-03-17T06:21:37;14.70;;;8.32;;
59922;SDS011;45778;51.142;3.732;2024-03-17T06:24:04;12.57;;;6.78;;
59922;SDS011;45778;51.142;3.732;2024-03-17T06:26:31;13.13;;;7.00;;
59922;SDS011;45778;51.142;3.732;2024-03-17T06:28:59;11.18;;;6.45;;
59922;SDS011;45778;51.142;3.732;2024-03-17T06:31:25;10.68;;;5.93;;
59922;SDS011;45778;51.142;3.732;2024-03-17T06:33:51;10.55;;;5.78;;
59922;SDS011;45778;51.142;3.732;2024-03-17T06:36:16;10.77;;;5.03;;
59922;SDS011;45778;51.142;3.732;2024-03-17T06:38:43;9.73;;;5.22;;
59922;SDS011;45778;51.142;3.732;2024-03-17T06:41:09;11.18;;;4.93;;
59922;SDS011;45778;51.142;3.732;2024-03-17T06:43:35;11.65;;;5.70;;
59922;SDS011;45778;51.142;3.732;2024-03-17T06:46:01;8.70;;;4.63;;
59922;SDS011;45778;51.142;3.732;2024-03-17T06:48:30;11.55;;;5.38;;
59922;SDS011;45778;51.142;3.732;2024-03-17T06:50:56;10.77;;;4.60;;
59922;SDS011;45778;51.142;3.732;2024-03-17T06:53:22;13.15;;;4.25;;
59922;SDS011;45778;51.142;3.732;2024-03-17T06:55:55;9.80;;;4.40;;
59922;SDS011;45778;51.142;3.732;2024-03-17T07:01:00;8.02;;;4.38;;
59922;SDS011;45778;51.142;3.732;2024-03-17T07:03:26;8.73;;;4.00;;
59922;SDS011;45778;51.142;3.732;2024-03-17T07:05:54;8.90;;;4.85;;
59922;SDS011;45778;51.142;3.732;2024-03-17T07:08:20;8.68;;;4.05;;
59922;SDS011;45778;51.142;3.732;2024-03-17T07:11:00;9.88;;;4.10;;
59922;SDS011;45778;51.142;3.732;2024-03-17T07:13:30;8.25;;;5.18;;
59922;SDS011;45778;51.142;3.732;2024-03-17T07:15:57;11.40;;;4.40;;
59922;SDS011;45778;51.142;3.732;2024-03-17T07:18:30;11.43;;;4.45;;
59922;SDS011;45778;51.142;3.732;2024-03-17T07:20:56;10.75;;;4.47;;
59922;SDS011;45778;51.142;3.732;2024-03-17T07:23:23;11.38;;;4.82;;
59922;SDS011;45778;51.142;3.732;2024-03-17T07:25:53;9.55;;;4.22;;
59922;SDS011;45778;51.142;3.732;2024-03-17T07:28:20;10.82;;;4.90;;
59922;SDS011;45778;51.142;3.732;2024-03-17T07:30:54;8.43;;;4.50;;
59922;SDS011;45778;51.142;3.732;2024-03-17T07:33:21;11.73;;;4.50;;
59922;SDS011;45778;51.142;3.732;2024-03-17T07:35:54;7.72;;;4.03;;
59922;SDS011;45778;51.142;3.732;2024-03-17T07:38:22;11.88;;;4.53;;
59922;SDS011;45778;51.142;3.732;2024-03-17T07:43:25;8.48;;;4.63;;
59922;SDS011;45778;51.142;3.732;2024-03-17T07:46:02;12.02;;;4.68;;
59922;SDS011;45778;51.142;3.732;2024-03-17T07:48:35;11.57;;;4.47;;
59922;SDS011;45778;51.142;3.732;2024-03-17T07:51:03;7.57;;;4.13;;
59922;SDS011;45778;51.142;3.732;2024-03-17T07:53:33;11.38;;;4.18;;
59922;SDS011;45778;51.142;3.732;2024-03-17T07:56:00;8.07;;;4.10;;
59922;SDS011;45778;51.142;3.732;2024-03-17T07:58:26;9.55;;;4.80;;
59922;SDS011;45778;51.142;3.732;2024-03-17T08:00:56;9.63;;;4.18;;
59922;SDS011;45778;51.142;3.732;2024-03-17T08:03:29;12.40;;;3.80;;
59922;SDS011;45778;51.142;3.732;2024-03-17T08:05:56;6.50;;;3.85;;
59922;SDS011;45778;51.142;3.732;2024-03-17T08:08:23;9.70;;;3.60;;
59922;SDS011;45778;51.142;3.732;2024-03-17T08:10:49;6.95;;;3.50;;
59922;SDS011;45778;51.142;3.732;2024-03-17T08:13:15;9.30;;;4.00;;
59922;SDS011;45778;51.142;3.732;2024-03-17T08:15:42;8.32;;;4.22;;
59922;SDS011;45778;51.142;3.732;2024-03-17T08:18:08;8.50;;;3.47;;
59922;SDS011;45778;51.142;3.732;2024-03-17T08:20:41;10.57;;;3.75;;
59922;SDS011;45778;51.142;3.732;2024-03-17T08:23:08;7.32;;;3.60;;
59922;SDS011;45778;51.142;3.732;2024-03-17T08:25:36;7.15;;;3.40;;
59922;SDS011;45778;51.142;3.732;2024-03-17T08:28:02;6.38;;;3.65;;
59922;SDS011;45778;51.142;3.732;2024-03-17T08:30:29;7.03;;;3.85;;
59922;SDS011;45778;51.142;3.732;2024-03-17T08:32:58;11.15;;;4.05;;
59922;SDS011;45778;51.142;3.732;2024-03-17T08:35:25;10.07;;;4.25;;
59922;SDS011;45778;51.142;3.732;2024-03-17T08:37:51;8.02;;;3.97;;
59922;SDS011;45778;51.142;3.732;2024-03-17T08:40:19;8.07;;;3.72;;
59922;SDS011;45778;51.142;3.732;2024-03-17T08:42:45;5.90;;;3.42;;
59922;SDS011;45778;51.142;3.732;2024-03-17T08:45:16;4.78;;;3.60;;
59922;SDS011;45778;51.142;3.732;2024-03-17T08:47:42;8.48;;;3.92;;
59922;SDS011;45778;51.142;3.732;2024-03-17T08:50:15;7.30;;;3.67;;
59922;SDS011;45778;51.142;3.732;2024-03-17T08:52:43;8.45;;;3.90;;
59922;SDS011;45778;51.142;3.732;2024-03-17T08:55:11;8.70;;;4.28;;
59922;SDS011;45778;51.142;3.732;2024-03-17T08:57:39;8.25;;;4.22;;
59922;SDS011;45778;51.142;3.732;2024-03-17T09:00:06;13.13;;;4.88;;
59922;SDS011;45778;51.142;3.732;2024-03-17T09:02:34;7.50;;;3.42;;
59922;SDS011;45778;51.142;3.732;2024-03-17T09:04:59;10.95;;;4.18;;
59922;SDS011;45778;51.142;3.732;2024-03-17T09:07:25;9.52;;;4.75;;
59922;SDS011;45778;51.142;3.732;2024-03-17T09:09:51;9.18;;;4.47;;
59922;SDS011;45778;51.142;3.732;2024-03-17T09:12:17;6.93;;;4.25;;
59922;SDS011;45778;51.142;3.732;2024-03-17T09:14:46;6.78;;;4.13;;
59922;SDS011;45778;51.142;3.732;2024-03-17T09:17:13;11.00;;;4.68;;
59922;SDS011;45778;51.142;3.732;2024-03-17T09:19:39;7.40;;;3.97;;
59922;SDS011;45778;51.142;3.732;2024-03-17T09:22:04;8.05;;;4.03;;
59922;SDS011;45778;51.142;3.732;2024-03-17T09:24:30;8.98;;;4.32;;
59922;SDS011;45778;51.142;3.732;2024-03-17T09:26:56;7.95;;;4.50;;
59922;SDS011;45778;51.142;3.732;2024-03-17T09:29:21;8.75;;;5.15;;
59922;SDS011;45778;51.142;3.732;2024-03-17T09:31:49;7.22;;;4.63;;
59922;SDS011;45778;51.142;3.732;2024-03-17T09:34:14;7.63;;;3.97;;
59922;SDS011;45778;51.142;3.732;2024-03-17T09:36:40;7.75;;;4.45;;
59922;SDS011;45778;51.142;3.732;2024-03-17T09:39:08;8.73;;;4.35;;
59922;SDS011;45778;51.142;3.732;2024-03-17T09:41:34;9.07;;;4.60;;
59922;SDS011;45778;51.142;3.732;2024-03-17T09:44:01;8.70;;;4.30;;
59922;SDS011;45778;51.142;3.732;2024-03-17T09:46:27;9.48;;;4.20;;
59922;SDS011;45778;51.142;3.732;2024-03-17T09:48:54;7.10;;;4.68;;
59922;SDS011;45778;51.142;3.732;2024-03-17T09:51:24;9.27;;;4.07;;
59922;SDS011;45778;51.142;3.732;2024-03-17T09:53:50;7.82;;;4.53;;
59922;SDS011;45778;51.142;3.732;2024-03-17T09:56:17;10.73;;;4.40;;
59922;SDS011;45778;51.142;3.732;2024-03-17T09:58:45;9.65;;;5.03;;
59922;SDS011;45778;51.142;3.732;2024-03-17T10:01:15;7.47;;;4.18;;
59922;SDS011;45778;51.142;3.732;2024-03-17T10:06:11;9.18;;;4.40;;
59922;SDS011;45778;51.142;3.732;2024-03-17T10:11:11;7.97;;;3.75;;
59922;SDS011;45778;51.142;3.732;2024-03-17T10:13:42;8.07;;;3.55;;
59922;SDS011;45778;51.142;3.732;2024-03-17T10:16:22;7.90;;;4.07;;
59922;SDS011;45778;51.142;3.732;2024-03-17T10:18:49;20.88;;;10.48;;
59922;SDS011;45778;51.142;3.732;2024-03-17T10:21:25;7.55;;;3.97;;
59922;SDS011;45778;51.142;3.732;2024-03-17T10:24:05;6.85;;;3.70;;
59922;SDS011;45778;51.142;3.732;2024-03-17T10:29:42;9.25;;;3.55;;
59922;SDS011;45778;51.142;3.732;2024-03-17T10:32:03;11.13;;;3.75;;
59922;SDS011;45778;51.142;3.732;2024-03-17T10:34:42;7.97;;;3.88;;
59922;SDS011;45778;51.142;3.732;2024-03-17T10:37:09;7.80;;;4.20;;
59922;SDS011;45778;51.142;3.732;2024-03-17T10:39:43;11.38;;;3.55;;
59922;SDS011;45778;51.142;3.732;2024-03-17T10:42:09;7.68;;;3.88;;
59922;SDS011;45778;51.142;3.732;2024-03-17T10:44:37;6.78;;;3.28;;
59922;SDS011;45778;51.142;3.732;2024-03-17T10:47:04;6.78;;;3.28;;
59922;SDS011;45778;51.142;3.732;2024-03-17T10:49:35;5.90;;;3.47;;
59922;SDS011;45778;51.142;3.732;2024-03-17T10:54:30;5.82;;;3.50;;
59922;SDS011;45778;51.142;3.732;2024-03-17T10:57:07;8.90;;;3.78;;
59922;SDS011;45778;51.142;3.732;2024-03-17T10:59:59;7.75;;;3.58;;
59922;SDS011;45778;51.142;3.732;2024-03-17T11:02:28;6.30;;;3.05;;
59922;SDS011;45778;51.142;3.732;2024-03-17T11:05:18;7.85;;;3.33;;
59922;SDS011;45778;51.142;3.732;2024-03-17T11:07:46;7.28;;;3.28;;
59922;SDS011;45778;51.142;3.732;2024-03-17T11:10:16;9.95;;;3.42;;
59922;SDS011;45778;51.142;3.732;2024-03-17T11:12:44;5.70;;;2.85;;
59922;SDS011;45778;51.142;3.732;2024-03-17T11:17:48;7.30;;;3.60;;
59922;SDS011;45778;51.142;3.732;2024-03-17T11:20:19;6.32;;;3.33;;
59922;SDS011;45778;51.142;3.732;2024-03-17T11:22:48;5.88;;;3.10;;
59922;SDS011;45778;51.142;3.732;2024-03-17T11:27:57;6.82;;;3.47;;
59922;SDS011;45778;51.142;3.732;2024-03-17T11:46:55;8.73;;;3.08;;
59922;SDS011;45778;51.142;3.732;2024-03-17T11:49:24;7.43;;;3.20;;
59922;SDS011;45778;51.142;3.732;2024-03-17T11:51:52;6.30;;;3.05;;
59922;SDS011;45778;51.142;3.732;2024-03-17T11:54:20;5.95;;;2.97;;
59922;SDS011;45778;51.142;3.732;2024-03-17T11:56:49;5.55;;;2.55;;
59922;SDS011;45778;51.142;3.732;2024-03-17T11:59:16;6.38;;;3.00;;
59922;SDS011;45778;51.142;3.732;2024-03-17T12:01:46;5.35;;;2.50;;
59922;SDS011;45778;51.142;3.732;2024-03-17T12:04:16;11.07;;;3.95;;
59922;SDS011;45778;51.142;3.732;2024-03-17T12:09:22;8.10;;;2.28;;
59922;SDS011;45778;51.142;3.732;2024-03-17T12:12:04;8.60;;;2.58;;
59922;SDS011;45778;51.142;3.732;2024-03-17T12:14:33;7.32;;;2.50;;
59922;SDS011;45778;51.142;3.732;2024-03-17T12:17:02;7.30;;;2.33;;
59922;SDS011;45778;51.142;3.732;2024-03-17T12:19:29;3.85;;;1.67;;
59922;SDS011;45778;51.142;3.732;2024-03-17T12:21:59;6.25;;;2.10;;
59922;SDS011;45778;51.142;3.732;2024-03-17T12:24:26;3.15;;;2.17;;
59922;SDS011;45778;51.142;3.732;2024-03-17T12:26:53;5.80;;;2.30;;
59922;SDS011;45778;51.142;3.732;2024-03-17T12:29:37;3.15;;;1.60;;
59922;SDS011;45778;51.142;3.732;2024-03-17T12:32:12;6.18;;;1.73;;
59922;SDS011;45778;51.142;3.732;2024-03-17T12:34:44;4.68;;;1.38;;
59922;SDS011;45778;51.142;3.732;2024-03-17T12:37:20;5.38;;;1.45;;
59922;SDS011;45778;51.142;3.732;2024-03-17T12:39:47;4.80;;;1.23;;
59922;SDS011;45778;51.142;3.732;2024-03-17T12:42:14;3.95;;;1.50;;
59922;SDS011;45778;51.142;3.732;2024-03-17T12:44:50;6.50;;;1.50;;
59922;SDS011;45778;51.142;3.732;2024-03-17T12:47:22;7.75;;;1.75;;
59922;SDS011;45778;51.142;3.732;2024-03-17T12:49:50;5.53;;;1.20;;
59922;SDS011;45778;51.142;3.732;2024-03-17T12:57:46;7.38;;;0.98;;
59922;SDS011;45778;51.142;3.732;2024-03-17T13:00:34;4.97;;;1.02;;
59922;SDS011;45778;51.142;3.732;2024-03-17T13:03:01;3.38;;;0.93;;
59922;SDS011;45778;51.142;3.732;2024-03-17T13:05:31;4.50;;;1.23;;
59922;SDS011;45778;51.142;3.732;2024-03-17T13:07:57;2.85;;;1.20;;
59922;SDS011;45778;51.142;3.732;2024-03-17T13:10:24;3.33;;;1.10;;
59922;SDS011;45778;51.142;3.732;2024-03-17T13:13:01;3.88;;;1.38;;
59922;SDS011;45778;51.142;3.732;2024-03-17T13:15:32;4.25;;;1.58;;
59922;SDS011;45778;51.142;3.732;2024-03-17T13:18:00;4.35;;;1.45;;
59922;SDS011;45778;51.142;3.732;2024-03-17T13:20:30;4.40;;;1.30;;
59922;SDS011;45778;51.142;3.732;2024-03-17T13:22:57;3.10;;;1.30;;
59922;SDS011;45778;51.142;3.732;2024-03-17T13:25:28;4.22;;;1.23;;
59922;SDS011;45778;51.142;3.732;2024-03-17T13:27:59;3.83;;;1.27;;
59922;SDS011;45778;51.142;3.732;2024-03-17T13:30:26;20.17;;;6.53;;
59922;SDS011;45778;51.142;3.732;2024-03-17T13:32:53;4.95;;;1.38;;
59922;SDS011;45778;51.142;3.732;2024-03-17T13:35:27;4.68;;;1.40;;
59922;SDS011;45778;51.142;3.732;2024-03-17T13:37:54;3.78;;;1.25;;
59922;SDS011;45778;51.142;3.732;2024-03-17T13:40:22;4.28;;;1.27;;
59922;SDS011;45778;51.142;3.732;2024-03-17T13:42:49;6.32;;;1.38;;
59922;SDS011;45778;51.142;3.732;2024-03-17T13:45:15;3.08;;;1.42;;
59922;SDS011;45778;51.142;3.732;2024-03-17T13:47:45;6.60;;;1.42;;
59922;SDS011;45778;51.142;3.732;2024-03-17T13:50:13;6.05;;;1.20;;
59922;SDS011;45778;51.142;3.732;2024-03-17T13:52:39;7.03;;;1.67;;
59922;SDS011;45778;51.142;3.732;2024-03-17T13:55:06;4.88;;;0.93;;
59922;SDS011;45778;51.142;3.732;2024-03-17T13:57:37;6.05;;;1.20;;
59922;SDS011;45778;51.142;3.732;2024-03-17T14:00:02;6.70;;;1.30;;
59922;SDS011;45778;51.142;3.732;2024-03-17T14:02:32;3.90;;;1.10;;
59922;SDS011;45778;51.142;3.732;2024-03-17T14:04:58;4.93;;;1.48;;
59922;SDS011;45778;51.142;3.732;2024-03-17T14:07:23;6.28;;;1.25;;
59922;SDS011;45778;51.142;3.732;2024-03-17T14:09:49;4.70;;;1.30;;
59922;SDS011;45778;51.142;3.732;2024-03-17T14:12:16;4.35;;;0.93;;
59922;SDS011;45778;51.142;3.732;2024-03-17T14:14:41;5.88;;;1.17;;
59922;SDS011;45778;51.142;3.732;2024-03-17T14:17:08;4.53;;;1.15;;
59922;SDS011;45778;51.142;3.732;2024-03-17T14:19:34;2.80;;;1.00;;
59922;SDS011;45778;51.142;3.732;2024-03-17T14:22:00;5.28;;;1.35;;
59922;SDS011;45778;51.142;3.732;2024-03-17T14:24:26;6.82;;;1.30;;
59922;SDS011;45778;51.142;3.732;2024-03-17T14:26:52;4.57;;;1.17;;
59922;SDS011;45778;51.142;3.732;2024-03-17T14:29:17;3.85;;;1.25;;
59922;SDS011;45778;51.142;3.732;2024-03-17T14:31:43;4.78;;;1.55;;
59922;SDS011;45778;51.142;3.732;2024-03-17T14:34:10;7.60;;;1.60;;
59922;SDS011;45778;51.142;3.732;2024-03-17T14:36:37;3.10;;;1.08;;
59922;SDS011;45778;51.142;3.732;2024-03-17T14:39:03;5.45;;;1.23;;
59922;SDS011;45778;51.142;3.732;2024-03-17T14:41:29;3.03;;;1.20;;
59922;SDS011;45778;51.142;3.732;2024-03-17T14:43:56;1.42;;;0.85;;
59922;SDS011;45778;51.142;3.732;2024-03-17T14:46:22;8.20;;;1.60;;
59922;SDS011;45778;51.142;3.732;2024-03-17T14:48:52;4.57;;;1.13;;
59922;SDS011;45778;51.142;3.732;2024-03-17T14:51:18;4.15;;;1.00;;
59922;SDS011;45778;51.142;3.732;2024-03-17T14:53:49;6.00;;;0.98;;
59922;SDS011;45778;51.142;3.732;2024-03-17T14:56:16;5.78;;;1.33;;
59922;SDS011;45778;51.142;3.732;2024-03-17T14:58:43;4.85;;;1.10;;
59922;SDS011;45778;51.142;3.732;2024-03-17T15:01:11;4.55;;;1.00;;
59922;SDS011;45778;51.142;3.732;2024-03-17T15:03:37;4.60;;;1.10;;
59922;SDS011;45778;51.142;3.732;2024-03-17T15:06:08;6.80;;;1.30;;
59922;SDS011;45778;51.142;3.732;2024-03-17T15:08:34;5.05;;;1.38;;
59922;SDS011;45778;51.142;3.732;2024-03-17T15:11:00;3.45;;;0.90;;
59922;SDS011;45778;51.142;3.732;2024-03-17T15:13:26;4.53;;;1.10;;
59922;SDS011;45778;51.142;3.732;2024-03-17T15:15:52;4.93;;;1.05;;
59922;SDS011;45778;51.142;3.732;2024-03-17T15:18:19;3.95;;;1.17;;
59922;SDS011;45778;51.142;3.732;2024-03-17T15:20:52;3.97;;;1.25;;
59922;SDS011;45778;51.142;3.732;2024-03-17T15:23:20;5.53;;;1.10;;
59922;SDS011;45778;51.142;3.732;2024-03-17T15:25:46;5.75;;;1.45;;
59922;SDS011;45778;51.142;3.732;2024-03-17T15:28:12;4.57;;;1.10;;
59922;SDS011;45778;51.142;3.732;2024-03-17T15:30:37;3.70;;;1.05;;
59922;SDS011;45778;51.142;3.732;2024-03-17T15:33:03;3.35;;;1.38;;
59922;SDS011;45778;51.142;3.732;2024-03-17T15:35:29;7.28;;;1.60;;
59922;SDS011;45778;51.142;3.732;2024-03-17T15:37:56;8.30;;;1.20;;
59922;SDS011;45778;51.142;3.732;2024-03-17T15:40:22;6.40;;;1.30;;